Aviation Digital Data Service (ADDS)

Output produced by METARs form (0007 UTC 19 July 2018)
found at http://www.aviationweather.gov/adds/metars/
 
METAR text: KSUS 182354Z 12005KT 10SM CLR 29/18 A2997 RMK AO2 SLP139 T02890183 10317 20289 53000
Conditions at: KSUS (ST. LOUIS/SPIRIT, MO, US) observed 2354 UTC 18 July 2018
Temperature: 28.9°C (84°F)
Dewpoint: 18.3°C (65°F) [RH = 53%]
Pressure (altimeter): 29.97 inches Hg (1015.0 mb)
[Sea-level pressure: 1013.9 mb]
Winds: from the ESE (120 degrees) at 6 MPH (5 knots; 2.6 m/s)
Visibility: 10 or more miles (16+ km)
Ceiling: at least 12,000 feet AGL
Clouds: sky clear below 12,000 feet AGL
Weather: no significant weather observed at this time